sensor_id;sensor_type;location;lat;lon;timestamp;temperature;humidity
54898;DHT22;40800;52.704;6.398;2022-11-15T00:00:50;7.90;99.90
54898;DHT22;40800;52.704;6.398;2022-11-15T00:03:26;8.10;99.90
54898;DHT22;40800;52.704;6.398;2022-11-15T00:05:51;7.80;99.90
54898;DHT22;40800;52.704;6.398;2022-11-15T00:08:17;7.70;99.90
54898;DHT22;40800;52.704;6.398;2022-11-15T00:10:46;7.90;99.90
54898;DHT22;40800;52.704;6.398;2022-11-15T00:13:18;7.70;99.90
54898;DHT22;40800;52.704;6.398;2022-11-15T00:15:44;7.80;99.90
54898;DHT22;40800;52.704;6.398;2022-11-15T00:18:13;7.60;99.90
54898;DHT22;40800;52.704;6.398;2022-11-15T00:20:39;7.50;99.90
54898;DHT22;40800;52.704;6.398;2022-11-15T00:23:06;7.50;99.90
54898;DHT22;40800;52.704;6.398;2022-11-15T00:25:32;7.50;99.90
54898;DHT22;40800;52.704;6.398;2022-11-15T00:27:59;7.40;99.90
54898;DHT22;40800;52.704;6.398;2022-11-15T00:30:26;7.60;99.90
54898;DHT22;40800;52.704;6.398;2022-11-15T00:32:52;7.50;99.90
54898;DHT22;40800;52.704;6.398;2022-11-15T00:35:18;7.40;99.90
54898;DHT22;40800;52.704;6.398;2022-11-15T00:37:44;7.40;99.90
54898;DHT22;40800;52.704;6.398;2022-11-15T00:40:10;7.40;99.90
54898;DHT22;40800;52.704;6.398;2022-11-15T00:42:36;7.40;99.90
54898;DHT22;40800;52.704;6.398;2022-11-15T00:45:01;7.30;99.90
54898;DHT22;40800;52.704;6.398;2022-11-15T00:47:27;7.40;99.90
54898;DHT22;40800;52.704;6.398;2022-11-15T00:49:53;7.30;99.90
54898;DHT22;40800;52.704;6.398;2022-11-15T00:52:18;7.40;99.90
54898;DHT22;40800;52.704;6.398;2022-11-15T00:54:44;7.30;99.90
54898;DHT22;40800;52.704;6.398;2022-11-15T00:57:10;7.30;99.90
54898;DHT22;40800;52.704;6.398;2022-11-15T00:59:35;7.30;99.90
54898;DHT22;40800;52.704;6.398;2022-11-15T01:02:01;7.30;99.90
54898;DHT22;40800;52.704;6.398;2022-11-15T01:04:27;7.30;99.90
54898;DHT22;40800;52.704;6.398;2022-11-15T01:06:53;7.20;99.90
54898;DHT22;40800;52.704;6.398;2022-11-15T01:09:18;7.30;99.90
54898;DHT22;40800;52.704;6.398;2022-11-15T01:11:44;7.10;99.90
54898;DHT22;40800;52.704;6.398;2022-11-15T01:14:10;7.20;99.90
54898;DHT22;40800;52.704;6.398;2022-11-15T01:16:35;7.10;99.90
54898;DHT22;40800;52.704;6.398;2022-11-15T01:19:02;7.10;99.90
54898;DHT22;40800;52.704;6.398;2022-11-15T01:21:28;7.20;99.90
54898;DHT22;40800;52.704;6.398;2022-11-15T01:23:55;7.30;99.90
54898;DHT22;40800;52.704;6.398;2022-11-15T01:26:21;7.30;99.90
54898;DHT22;40800;52.704;6.398;2022-11-15T01:28:46;7.40;99.90
54898;DHT22;40800;52.704;6.398;2022-11-15T01:31:18;7.40;99.90
54898;DHT22;40800;52.704;6.398;2022-11-15T01:33:44;7.40;99.90
54898;DHT22;40800;52.704;6.398;2022-11-15T01:36:16;7.30;99.90
54898;DHT22;40800;52.704;6.398;2022-11-15T01:38:42;7.40;99.90
54898;DHT22;40800;52.704;6.398;2022-11-15T01:41:19;7.70;99.90
54898;DHT22;40800;52.704;6.398;2022-11-15T01:43:47;7.70;99.90
54898;DHT22;40800;52.704;6.398;2022-11-15T01:46:32;7.80;99.90
54898;DHT22;40800;52.704;6.398;2022-11-15T01:49:02;7.70;99.90
54898;DHT22;40800;52.704;6.398;2022-11-15T01:51:32;7.60;99.90
54898;DHT22;40800;52.704;6.398;2022-11-15T01:54:02;7.60;99.90
54898;DHT22;40800;52.704;6.398;2022-11-15T01:56:33;7.70;99.90
54898;DHT22;40800;52.704;6.398;2022-11-15T01:59:03;7.60;99.90
54898;DHT22;40800;52.704;6.398;2022-11-15T02:01:30;7.50;99.90
54898;DHT22;40800;52.704;6.398;2022-11-15T02:04:13;7.60;99.90
54898;DHT22;40800;52.704;6.398;2022-11-15T02:06:41;7.70;99.90
54898;DHT22;40800;52.704;6.398;2022-11-15T02:09:08;7.80;99.90
54898;DHT22;40800;52.704;6.398;2022-11-15T02:11:34;7.80;99.90
54898;DHT22;40800;52.704;6.398;2022-11-15T02:14:01;7.70;99.90
54898;DHT22;40800;52.704;6.398;2022-11-15T02:16:31;7.80;99.90
54898;DHT22;40800;52.704;6.398;2022-11-15T02:19:08;7.80;99.90
54898;DHT22;40800;52.704;6.398;2022-11-15T02:27:38;7.70;99.90
54898;DHT22;40800;52.704;6.398;2022-11-15T02:32:57;7.80;99.90
54898;DHT22;40800;52.704;6.398;2022-11-15T02:36:24;7.80;99.90
54898;DHT22;40800;52.704;6.398;2022-11-15T02:41:20;8.00;99.90
54898;DHT22;40800;52.704;6.398;2022-11-15T02:44:00;7.90;99.90
54898;DHT22;40800;52.704;6.398;2022-11-15T02:46:46;7.80;99.90
54898;DHT22;40800;52.704;6.398;2022-11-15T02:49:33;7.90;99.90
54898;DHT22;40800;52.704;6.398;2022-11-15T02:52:00;8.00;99.90
54898;DHT22;40800;52.704;6.398;2022-11-15T02:54:29;7.90;99.90
54898;DHT22;40800;52.704;6.398;2022-11-15T02:57:05;8.00;99.90
54898;DHT22;40800;52.704;6.398;2022-11-15T03:05:35;8.10;99.90
54898;DHT22;40800;52.704;6.398;2022-11-15T03:13:26;8.10;99.90
54898;DHT22;40800;52.704;6.398;2022-11-15T03:16:02;8.30;99.90
54898;DHT22;40800;52.704;6.398;2022-11-15T03:18:35;8.30;99.90
54898;DHT22;40800;52.704;6.398;2022-11-15T03:21:05;8.20;99.90
54898;DHT22;40800;52.704;6.398;2022-11-15T03:23:33;8.30;99.90
54898;DHT22;40800;52.704;6.398;2022-11-15T03:26:00;8.30;99.90
54898;DHT22;40800;52.704;6.398;2022-11-15T03:28:40;8.30;99.90
54898;DHT22;40800;52.704;6.398;2022-11-15T03:31:10;8.50;99.90
54898;DHT22;40800;52.704;6.398;2022-11-15T03:33:57;8.40;99.90
54898;DHT22;40800;52.704;6.398;2022-11-15T03:36:25;8.40;99.90
54898;DHT22;40800;52.704;6.398;2022-11-15T03:38:54;8.40;99.90
54898;DHT22;40800;52.704;6.398;2022-11-15T03:41:28;8.40;99.90
54898;DHT22;40800;52.704;6.398;2022-11-15T03:44:04;8.50;99.90
54898;DHT22;40800;52.704;6.398;2022-11-15T03:46:42;8.60;99.90
54898;DHT22;40800;52.704;6.398;2022-11-15T03:49:29;8.70;99.90
54898;DHT22;40800;52.704;6.398;2022-11-15T03:51:57;8.60;99.90
54898;DHT22;40800;52.704;6.398;2022-11-15T03:54:23;8.70;99.90
54898;DHT22;40800;52.704;6.398;2022-11-15T03:56:49;8.90;99.90
54898;DHT22;40800;52.704;6.398;2022-11-15T03:59:14;8.80;99.90
54898;DHT22;40800;52.704;6.398;2022-11-15T04:01:40;8.80;99.90
54898;DHT22;40800;52.704;6.398;2022-11-15T04:04:05;8.70;99.90
54898;DHT22;40800;52.704;6.398;2022-11-15T04:06:31;9.00;99.90
54898;DHT22;40800;52.704;6.398;2022-11-15T04:08:56;9.10;99.90
54898;DHT22;40800;52.704;6.398;2022-11-15T04:11:22;8.80;99.90
54898;DHT22;40800;52.704;6.398;2022-11-15T04:13:48;9.00;99.90
54898;DHT22;40800;52.704;6.398;2022-11-15T04:16:13;8.80;99.90
54898;DHT22;40800;52.704;6.398;2022-11-15T04:18:39;8.90;99.90
54898;DHT22;40800;52.704;6.398;2022-11-15T04:21:04;9.00;99.90
54898;DHT22;40800;52.704;6.398;2022-11-15T04:23:48;8.90;99.90
54898;DHT22;40800;52.704;6.398;2022-11-15T04:26:32;9.10;99.90
54898;DHT22;40800;52.704;6.398;2022-11-15T04:28:58;9.30;99.90
54898;DHT22;40800;52.704;6.398;2022-11-15T04:31:42;9.20;99.90
54898;DHT22;40800;52.704;6.398;2022-11-15T04:34:08;9.20;99.90
54898;DHT22;40800;52.704;6.398;2022-11-15T04:36:33;9.40;99.90
54898;DHT22;40800;52.704;6.398;2022-11-15T04:39:17;9.40;99.90
54898;DHT22;40800;52.704;6.398;2022-11-15T04:41:43;9.40;99.90
54898;DHT22;40800;52.704;6.398;2022-11-15T04:44:08;9.30;99.90
54898;DHT22;40800;52.704;6.398;2022-11-15T04:46:35;9.30;99.90
54898;DHT22;40800;52.704;6.398;2022-11-15T04:49:00;9.30;99.90
54898;DHT22;40800;52.704;6.398;2022-11-15T04:51:26;9.50;99.90
54898;DHT22;40800;52.704;6.398;2022-11-15T04:53:52;9.60;99.90
54898;DHT22;40800;52.704;6.398;2022-11-15T04:56:18;9.60;99.90
54898;DHT22;40800;52.704;6.398;2022-11-15T04:58:44;9.50;99.90
54898;DHT22;40800;52.704;6.398;2022-11-15T05:01:14;9.60;99.90
54898;DHT22;40800;52.704;6.398;2022-11-15T05:03:40;9.60;99.90
54898;DHT22;40800;52.704;6.398;2022-11-15T05:06:25;9.60;99.90
54898;DHT22;40800;52.704;6.398;2022-11-15T05:08:50;9.60;99.90
54898;DHT22;40800;52.704;6.398;2022-11-15T05:11:16;9.80;99.90
54898;DHT22;40800;52.704;6.398;2022-11-15T05:13:41;9.70;99.90
54898;DHT22;40800;52.704;6.398;2022-11-15T05:16:07;9.60;99.90
54898;DHT22;40800;52.704;6.398;2022-11-15T05:18:33;9.80;99.90
54898;DHT22;40800;52.704;6.398;2022-11-15T05:21:06;9.80;99.90
54898;DHT22;40800;52.704;6.398;2022-11-15T05:23:31;9.70;99.90
54898;DHT22;40800;52.704;6.398;2022-11-15T05:26:01;9.80;99.90
54898;DHT22;40800;52.704;6.398;2022-11-15T05:28:27;9.80;99.90
54898;DHT22;40800;52.704;6.398;2022-11-15T05:30:53;9.70;99.90
54898;DHT22;40800;52.704;6.398;2022-11-15T05:33:19;9.80;99.90
54898;DHT22;40800;52.704;6.398;2022-11-15T05:35:51;9.80;99.90
54898;DHT22;40800;52.704;6.398;2022-11-15T05:38:20;10.10;99.90
54898;DHT22;40800;52.704;6.398;2022-11-15T05:40:46;10.10;99.90
54898;DHT22;40800;52.704;6.398;2022-11-15T05:43:11;10.10;99.90
54898;DHT22;40800;52.704;6.398;2022-11-15T05:45:37;10.20;99.90
54898;DHT22;40800;52.704;6.398;2022-11-15T05:48:06;9.90;99.90
54898;DHT22;40800;52.704;6.398;2022-11-15T05:50:34;10.10;99.90
54898;DHT22;40800;52.704;6.398;2022-11-15T05:53:02;10.30;99.90
54898;DHT22;40800;52.704;6.398;2022-11-15T05:55:28;10.10;99.90
54898;DHT22;40800;52.704;6.398;2022-11-15T05:57:53;10.20;99.90
54898;DHT22;40800;52.704;6.398;2022-11-15T06:00:19;10.20;99.90
54898;DHT22;40800;52.704;6.398;2022-11-15T06:02:44;10.10;99.90
54898;DHT22;40800;52.704;6.398;2022-11-15T06:05:10;10.10;99.90
54898;DHT22;40800;52.704;6.398;2022-11-15T06:07:36;10.10;99.90
54898;DHT22;40800;52.704;6.398;2022-11-15T06:10:01;10.20;99.90
54898;DHT22;40800;52.704;6.398;2022-11-15T06:12:27;10.10;99.90
54898;DHT22;40800;52.704;6.398;2022-11-15T06:14:52;10.30;99.90
54898;DHT22;40800;52.704;6.398;2022-11-15T06:17:18;10.40;99.90
54898;DHT22;40800;52.704;6.398;2022-11-15T06:19:43;10.20;99.90
54898;DHT22;40800;52.704;6.398;2022-11-15T06:22:09;10.30;99.90
54898;DHT22;40800;52.704;6.398;2022-11-15T06:24:35;10.50;99.90
54898;DHT22;40800;52.704;6.398;2022-11-15T06:27:00;10.30;99.90
54898;DHT22;40800;52.704;6.398;2022-11-15T06:29:26;10.30;99.90
54898;DHT22;40800;52.704;6.398;2022-11-15T06:31:51;10.30;99.90
54898;DHT22;40800;52.704;6.398;2022-11-15T06:34:18;10.50;99.90
54898;DHT22;40800;52.704;6.398;2022-11-15T06:36:43;10.50;99.90
54898;DHT22;40800;52.704;6.398;2022-11-15T06:39:09;10.60;99.90
54898;DHT22;40800;52.704;6.398;2022-11-15T06:41:35;10.50;99.90
54898;DHT22;40800;52.704;6.398;2022-11-15T06:44:02;10.60;99.90
54898;DHT22;40800;52.704;6.398;2022-11-15T06:46:28;10.50;99.90
54898;DHT22;40800;52.704;6.398;2022-11-15T06:48:54;10.70;99.90
54898;DHT22;40800;52.704;6.398;2022-11-15T06:51:20;10.90;99.90
54898;DHT22;40800;52.704;6.398;2022-11-15T06:53:46;10.60;99.90
54898;DHT22;40800;52.704;6.398;2022-11-15T06:56:11;10.70;99.90
54898;DHT22;40800;52.704;6.398;2022-11-15T06:58:37;10.80;99.90
54898;DHT22;40800;52.704;6.398;2022-11-15T07:01:08;10.50;99.90
54898;DHT22;40800;52.704;6.398;2022-11-15T07:03:35;10.70;99.90
54898;DHT22;40800;52.704;6.398;2022-11-15T07:06:01;10.60;99.90
54898;DHT22;40800;52.704;6.398;2022-11-15T07:08:27;10.80;99.90
54898;DHT22;40800;52.704;6.398;2022-11-15T07:10:55;10.80;99.90
54898;DHT22;40800;52.704;6.398;2022-11-15T07:13:26;10.60;99.90
54898;DHT22;40800;52.704;6.398;2022-11-15T07:15:52;10.70;99.90
54898;DHT22;40800;52.704;6.398;2022-11-15T07:18:18;10.60;99.90
54898;DHT22;40800;52.704;6.398;2022-11-15T07:20:43;10.70;99.90
54898;DHT22;40800;52.704;6.398;2022-11-15T07:23:09;11.00;99.90
54898;DHT22;40800;52.704;6.398;2022-11-15T07:25:34;10.70;99.90
54898;DHT22;40800;52.704;6.398;2022-11-15T07:28:01;10.70;99.90
54898;DHT22;40800;52.704;6.398;2022-11-15T07:30:27;10.80;99.90
54898;DHT22;40800;52.704;6.398;2022-11-15T07:32:58;11.00;99.90
54898;DHT22;40800;52.704;6.398;2022-11-15T07:35:25;10.80;99.90
54898;DHT22;40800;52.704;6.398;2022-11-15T07:37:58;10.80;99.90
54898;DHT22;40800;52.704;6.398;2022-11-15T07:40:25;11.00;99.90
54898;DHT22;40800;52.704;6.398;2022-11-15T07:42:50;10.80;99.90
54898;DHT22;40800;52.704;6.398;2022-11-15T07:45:20;10.90;99.90
54898;DHT22;40800;52.704;6.398;2022-11-15T07:47:49;10.90;99.90
54898;DHT22;40800;52.704;6.398;2022-11-15T07:50:15;11.00;99.90
54898;DHT22;40800;52.704;6.398;2022-11-15T07:52:41;11.20;99.90
54898;DHT22;40800;52.704;6.398;2022-11-15T07:55:07;10.80;99.90
54898;DHT22;40800;52.704;6.398;2022-11-15T07:57:32;10.90;99.90
54898;DHT22;40800;52.704;6.398;2022-11-15T07:59:58;11.00;99.90
54898;DHT22;40800;52.704;6.398;2022-11-15T08:02:23;10.90;99.90
54898;DHT22;40800;52.704;6.398;2022-11-15T08:04:49;10.90;99.90
54898;DHT22;40800;52.704;6.398;2022-11-15T08:07:15;11.10;99.90
54898;DHT22;40800;52.704;6.398;2022-11-15T08:09:40;11.30;99.90
54898;DHT22;40800;52.704;6.398;2022-11-15T08:12:06;11.00;99.90
54898;DHT22;40800;52.704;6.398;2022-11-15T08:14:32;11.00;99.90
54898;DHT22;40800;52.704;6.398;2022-11-15T08:16:57;11.20;99.90
54898;DHT22;40800;52.704;6.398;2022-11-15T08:19:23;11.40;99.90
54898;DHT22;40800;52.704;6.398;2022-11-15T08:21:49;11.20;99.90
54898;DHT22;40800;52.704;6.398;2022-11-15T08:24:15;11.40;99.90
54898;DHT22;40800;52.704;6.398;2022-11-15T08:26:40;11.10;99.90
54898;DHT22;40800;52.704;6.398;2022-11-15T08:29:06;11.50;99.90
54898;DHT22;40800;52.704;6.398;2022-11-15T08:31:35;11.60;99.90
54898;DHT22;40800;52.704;6.398;2022-11-15T08:34:02;11.50;99.90
54898;DHT22;40800;52.704;6.398;2022-11-15T08:36:28;11.60;99.90
54898;DHT22;40800;52.704;6.398;2022-11-15T08:38:54;11.40;99.90
54898;DHT22;40800;52.704;6.398;2022-11-15T08:41:39;11.30;99.90
54898;DHT22;40800;52.704;6.398;2022-11-15T08:44:05;11.60;99.90
54898;DHT22;40800;52.704;6.398;2022-11-15T08:46:31;11.50;99.90
54898;DHT22;40800;52.704;6.398;2022-11-15T08:48:56;11.50;99.90
54898;DHT22;40800;52.704;6.398;2022-11-15T08:51:22;11.60;99.90
54898;DHT22;40800;52.704;6.398;2022-11-15T08:53:47;11.80;99.90
54898;DHT22;40800;52.704;6.398;2022-11-15T08:56:14;11.80;99.90
54898;DHT22;40800;52.704;6.398;2022-11-15T08:58:40;11.70;99.90
54898;DHT22;40800;52.704;6.398;2022-11-15T09:01:13;11.80;99.90
54898;DHT22;40800;52.704;6.398;2022-11-15T09:03:40;11.80;99.90
54898;DHT22;40800;52.704;6.398;2022-11-15T09:06:06;11.60;99.90
54898;DHT22;40800;52.704;6.398;2022-11-15T09:08:32;11.80;99.90
54898;DHT22;40800;52.704;6.398;2022-11-15T09:10:57;11.60;99.90
54898;DHT22;40800;52.704;6.398;2022-11-15T09:13:23;11.90;99.90
54898;DHT22;40800;52.704;6.398;2022-11-15T09:15:48;11.80;99.90
54898;DHT22;40800;52.704;6.398;2022-11-15T09:18:14;11.80;99.90
54898;DHT22;40800;52.704;6.398;2022-11-15T09:20:40;12.00;99.90
54898;DHT22;40800;52.704;6.398;2022-11-15T09:23:05;11.70;99.90
54898;DHT22;40800;52.704;6.398;2022-11-15T09:25:32;12.00;99.90
54898;DHT22;40800;52.704;6.398;2022-11-15T09:27:58;11.90;99.90
54898;DHT22;40800;52.704;6.398;2022-11-15T09:30:24;11.90;99.90
54898;DHT22;40800;52.704;6.398;2022-11-15T09:32:49;12.10;99.90
54898;DHT22;40800;52.704;6.398;2022-11-15T09:35:15;11.80;99.90
54898;DHT22;40800;52.704;6.398;2022-11-15T09:37:41;11.90;99.90
54898;DHT22;40800;52.704;6.398;2022-11-15T09:40:12;12.30;99.90
54898;DHT22;40800;52.704;6.398;2022-11-15T09:43:03;12.30;99.90
54898;DHT22;40800;52.704;6.398;2022-11-15T09:48:18;12.10;99.90
54898;DHT22;40800;52.704;6.398;2022-11-15T09:50:48;12.30;99.90
54898;DHT22;40800;52.704;6.398;2022-11-15T09:56:21;11.90;99.90
54898;DHT22;40800;52.704;6.398;2022-11-15T10:04:22;11.90;99.90
54898;DHT22;40800;52.704;6.398;2022-11-15T10:07:01;12.20;99.90
54898;DHT22;40800;52.704;6.398;2022-11-15T10:09:39;12.90;99.90
54898;DHT22;40800;52.704;6.398;2022-11-15T10:12:09;12.00;99.90
54898;DHT22;40800;52.704;6.398;2022-11-15T10:14:35;12.10;99.90
54898;DHT22;40800;52.704;6.398;2022-11-15T10:19:55;12.10;99.90
54898;DHT22;40800;52.704;6.398;2022-11-15T10:25:10;12.40;99.90
54898;DHT22;40800;52.704;6.398;2022-11-15T10:27:40;12.40;99.90
54898;DHT22;40800;52.704;6.398;2022-11-15T10:30:13;12.80;99.90
54898;DHT22;40800;52.704;6.398;2022-11-15T10:32:40;12.50;99.90
54898;DHT22;40800;52.704;6.398;2022-11-15T10:35:25;12.60;99.90
54898;DHT22;40800;52.704;6.398;2022-11-15T10:37:51;12.60;99.90
54898;DHT22;40800;52.704;6.398;2022-11-15T10:40:23;12.50;99.90
54898;DHT22;40800;52.704;6.398;2022-11-15T10:45:35;12.70;99.90
54898;DHT22;40800;52.704;6.398;2022-11-15T10:50:40;13.30;99.90
54898;DHT22;40800;52.704;6.398;2022-11-15T10:53:21;12.90;99.90
54898;DHT22;40800;52.704;6.398;2022-11-15T10:55:50;12.80;99.90
54898;DHT22;40800;52.704;6.398;2022-11-15T10:58:31;12.80;99.90
54898;DHT22;40800;52.704;6.398;2022-11-15T11:01:09;12.50;99.90
54898;DHT22;40800;52.704;6.398;2022-11-15T11:03:37;12.70;99.90
54898;DHT22;40800;52.704;6.398;2022-11-15T11:06:15;12.60;99.90
54898;DHT22;40800;52.704;6.398;2022-11-15T11:08:56;13.00;99.90
54898;DHT22;40800;52.704;6.398;2022-11-15T11:11:23;13.40;99.90
54898;DHT22;40800;52.704;6.398;2022-11-15T11:13:49;13.40;99.90
54898;DHT22;40800;52.704;6.398;2022-11-15T11:37:48;13.10;99.90
54898;DHT22;40800;52.704;6.398;2022-11-15T11:48:59;13.20;99.90
54898;DHT22;40800;52.704;6.398;2022-11-15T11:51:33;13.40;99.90
54898;DHT22;40800;52.704;6.398;2022-11-15T11:54:29;13.30;99.90
54898;DHT22;40800;52.704;6.398;2022-11-15T11:57:00;13.50;99.90
54898;DHT22;40800;52.704;6.398;2022-11-15T12:01:54;13.30;99.90
54898;DHT22;40800;52.704;6.398;2022-11-15T12:04:38;13.60;99.90
54898;DHT22;40800;52.704;6.398;2022-11-15T12:07:15;13.60;99.90
54898;DHT22;40800;52.704;6.398;2022-11-15T12:10:03;13.70;99.90
54898;DHT22;40800;52.704;6.398;2022-11-15T12:13:06;14.00;99.90
54898;DHT22;40800;52.704;6.398;2022-11-15T12:15:59;14.30;99.90
54898;DHT22;40800;52.704;6.398;2022-11-15T12:18:28;14.20;99.90
54898;DHT22;40800;52.704;6.398;2022-11-15T12:21:00;14.10;99.90
54898;DHT22;40800;52.704;6.398;2022-11-15T12:23:32;13.70;99.90
54898;DHT22;40800;52.704;6.398;2022-11-15T12:26:10;13.70;99.90
54898;DHT22;40800;52.704;6.398;2022-11-15T12:28:45;13.50;99.90
54898;DHT22;40800;52.704;6.398;2022-11-15T12:31:47;13.40;99.90
54898;DHT22;40800;52.704;6.398;2022-11-15T12:36:45;13.60;99.90
54898;DHT22;40800;52.704;6.398;2022-11-15T12:39:12;13.80;99.90
54898;DHT22;40800;52.704;6.398;2022-11-15T12:41:38;14.00;99.90
54898;DHT22;40800;52.704;6.398;2022-11-15T12:44:15;14.10;99.90
54898;DHT22;40800;52.704;6.398;2022-11-15T12:49:42;14.40;99.90
54898;DHT22;40800;52.704;6.398;2022-11-15T12:52:09;14.40;99.90
54898;DHT22;40800;52.704;6.398;2022-11-15T13:00:21;14.50;99.90
54898;DHT22;40800;52.704;6.398;2022-11-15T13:02:45;14.50;99.90
54898;DHT22;40800;52.704;6.398;2022-11-15T13:17:46;15.30;99.90
54898;DHT22;40800;52.704;6.398;2022-11-15T13:33:46;15.70;99.90
54898;DHT22;40800;52.704;6.398;2022-11-15T13:36:28;15.60;99.90
54898;DHT22;40800;52.704;6.398;2022-11-15T13:39:23;15.70;99.90
54898;DHT22;40800;52.704;6.398;2022-11-15T13:41:51;15.70;99.90
54898;DHT22;40800;52.704;6.398;2022-11-15T13:44:31;15.80;99.90
54898;DHT22;40800;52.704;6.398;2022-11-15T13:47:15;15.60;99.90
54898;DHT22;40800;52.704;6.398;2022-11-15T13:49:41;15.40;99.90
54898;DHT22;40800;52.704;6.398;2022-11-15T13:52:10;15.30;99.90
54898;DHT22;40800;52.704;6.398;2022-11-15T13:54:42;15.20;99.90
54898;DHT22;40800;52.704;6.398;2022-11-15T13:57:16;15.10;99.90
54898;DHT22;40800;52.704;6.398;2022-11-15T13:59:51;15.10;99.90
54898;DHT22;40800;52.704;6.398;2022-11-15T14:02:19;14.90;99.90
54898;DHT22;40800;52.704;6.398;2022-11-15T14:04:51;14.80;99.90
54898;DHT22;40800;52.704;6.398;2022-11-15T14:07:20;14.60;99.90
54898;DHT22;40800;52.704;6.398;2022-11-15T14:09:46;14.40;99.90
54898;DHT22;40800;52.704;6.398;2022-11-15T14:14:54;14.70;99.90
54898;DHT22;40800;52.704;6.398;2022-11-15T14:19:56;14.70;99.90
54898;DHT22;40800;52.704;6.398;2022-11-15T14:22:27;14.70;99.90
54898;DHT22;40800;52.704;6.398;2022-11-15T14:27:42;14.60;99.90
54898;DHT22;40800;52.704;6.398;2022-11-15T14:30:16;14.70;99.90
54898;DHT22;40800;52.704;6.398;2022-11-15T14:32:47;14.50;99.90
54898;DHT22;40800;52.704;6.398;2022-11-15T14:35:17;14.30;99.90
54898;DHT22;40800;52.704;6.398;2022-11-15T14:37:44;14.30;99.90
54898;DHT22;40800;52.704;6.398;2022-11-15T14:40:16;14.30;99.90
54898;DHT22;40800;52.704;6.398;2022-11-15T14:42:44;14.20;99.90
54898;DHT22;40800;52.704;6.398;2022-11-15T14:45:16;14.20;99.90
54898;DHT22;40800;52.704;6.398;2022-11-15T14:47:42;14.00;99.90
54898;DHT22;40800;52.704;6.398;2022-11-15T14:50:19;13.90;99.90
54898;DHT22;40800;52.704;6.398;2022-11-15T14:52:45;13.90;99.90
54898;DHT22;40800;52.704;6.398;2022-11-15T14:55:30;13.80;99.90
54898;DHT22;40800;52.704;6.398;2022-11-15T14:57:58;13.70;99.90
54898;DHT22;40800;52.704;6.398;2022-11-15T15:00:24;13.70;99.90
54898;DHT22;40800;52.704;6.398;2022-11-15T15:02:52;13.60;99.90
54898;DHT22;40800;52.704;6.398;2022-11-15T15:05:24;13.60;99.90
54898;DHT22;40800;52.704;6.398;2022-11-15T15:07:50;13.50;99.90
54898;DHT22;40800;52.704;6.398;2022-11-15T15:10:19;13.50;99.90
54898;DHT22;40800;52.704;6.398;2022-11-15T15:12:44;13.40;99.90
54898;DHT22;40800;52.704;6.398;2022-11-15T15:15:22;13.30;99.90
54898;DHT22;40800;52.704;6.398;2022-11-15T15:17:49;13.30;99.90
54898;DHT22;40800;52.704;6.398;2022-11-15T15:20:15;13.30;99.90
54898;DHT22;40800;52.704;6.398;2022-11-15T15:22:41;13.30;99.90
54898;DHT22;40800;52.704;6.398;2022-11-15T15:27:48;13.10;99.90
54898;DHT22;40800;52.704;6.398;2022-11-15T15:30:13;13.10;99.90
54898;DHT22;40800;52.704;6.398;2022-11-15T15:32:39;12.90;99.90
54898;DHT22;40800;52.704;6.398;2022-11-15T15:35:05;13.00;99.90
54898;DHT22;40800;52.704;6.398;2022-11-15T15:37:31;12.80;99.90
54898;DHT22;40800;52.704;6.398;2022-11-15T15:39:58;12.80;99.90
54898;DHT22;40800;52.704;6.398;2022-11-15T15:42:24;12.70;99.90
54898;DHT22;40800;52.704;6.398;2022-11-15T15:44:50;12.60;99.90
54898;DHT22;40800;52.704;6.398;2022-11-15T15:47:23;12.50;99.90
54898;DHT22;40800;52.704;6.398;2022-11-15T15:49:49;12.50;99.90
54898;DHT22;40800;52.704;6.398;2022-11-15T15:52:16;12.40;99.90
54898;DHT22;40800;52.704;6.398;2022-11-15T15:54:41;12.30;99.90
54898;DHT22;40800;52.704;6.398;2022-11-15T15:57:08;12.20;99.90
54898;DHT22;40800;52.704;6.398;2022-11-15T15:59:36;12.20;99.90
54898;DHT22;40800;52.704;6.398;2022-11-15T16:02:02;12.20;99.90
54898;DHT22;40800;52.704;6.398;2022-11-15T16:04:27;12.10;99.90
54898;DHT22;40800;52.704;6.398;2022-11-15T16:06:58;12.00;99.90
54898;DHT22;40800;52.704;6.398;2022-11-15T16:09:24;12.00;99.90
54898;DHT22;40800;52.704;6.398;2022-11-15T16:12:19;12.20;99.90
54898;DHT22;40800;52.704;6.398;2022-11-15T16:14:44;12.00;99.90
54898;DHT22;40800;52.704;6.398;2022-11-15T16:17:37;11.90;99.90
54898;DHT22;40800;52.704;6.398;2022-11-15T16:20:04;12.00;99.90
54898;DHT22;40800;52.704;6.398;2022-11-15T16:22:30;12.00;99.90
54898;DHT22;40800;52.704;6.398;2022-11-15T16:24:56;12.00;99.90
54898;DHT22;40800;52.704;6.398;2022-11-15T16:27:22;11.90;99.90
54898;DHT22;40800;52.704;6.398;2022-11-15T16:29:48;11.90;99.90
54898;DHT22;40800;52.704;6.398;2022-11-15T16:32:14;11.90;99.90
54898;DHT22;40800;52.704;6.398;2022-11-15T16:34:40;11.90;99.90
54898;DHT22;40800;52.704;6.398;2022-11-15T16:37:21;11.90;99.90
54898;DHT22;40800;52.704;6.398;2022-11-15T16:39:47;12.00;99.90
54898;DHT22;40800;52.704;6.398;2022-11-15T16:42:12;11.90;99.90
54898;DHT22;40800;52.704;6.398;2022-11-15T16:44:38;11.90;99.90
54898;DHT22;40800;52.704;6.398;2022-11-15T16:47:04;11.90;99.90
54898;DHT22;40800;52.704;6.398;2022-11-15T16:49:30;11.90;99.90
54898;DHT22;40800;52.704;6.398;2022-11-15T16:51:55;12.00;99.90
54898;DHT22;40800;52.704;6.398;2022-11-15T16:54:21;12.00;99.90
54898;DHT22;40800;52.704;6.398;2022-11-15T16:56:46;12.00;99.90
54898;DHT22;40800;52.704;6.398;2022-11-15T16:59:16;12.00;99.90
54898;DHT22;40800;52.704;6.398;2022-11-15T17:01:43;11.90;99.90
54898;DHT22;40800;52.704;6.398;2022-11-15T17:04:16;12.00;99.90
54898;DHT22;40800;52.704;6.398;2022-11-15T17:06:44;12.00;99.90
54898;DHT22;40800;52.704;6.398;2022-11-15T17:09:12;12.30;99.90
54898;DHT22;40800;52.704;6.398;2022-11-15T17:11:39;12.00;99.90
54898;DHT22;40800;52.704;6.398;2022-11-15T17:14:05;12.10;99.90
54898;DHT22;40800;52.704;6.398;2022-11-15T17:16:31;12.00;99.90
54898;DHT22;40800;52.704;6.398;2022-11-15T17:18:58;12.10;99.90
54898;DHT22;40800;52.704;6.398;2022-11-15T17:21:24;12.10;99.90
54898;DHT22;40800;52.704;6.398;2022-11-15T17:23:52;12.10;99.90
54898;DHT22;40800;52.704;6.398;2022-11-15T17:26:18;12.10;99.90
54898;DHT22;40800;52.704;6.398;2022-11-15T17:28:44;12.30;99.90
54898;DHT22;40800;52.704;6.398;2022-11-15T17:31:12;12.10;99.90
54898;DHT22;40800;52.704;6.398;2022-11-15T17:33:38;12.30;99.90
54898;DHT22;40800;52.704;6.398;2022-11-15T17:36:10;12.10;99.90
54898;DHT22;40800;52.704;6.398;2022-11-15T17:38:36;12.40;99.90
54898;DHT22;40800;52.704;6.398;2022-11-15T17:41:03;12.10;99.90
54898;DHT22;40800;52.704;6.398;2022-11-15T17:43:31;12.20;99.90
54898;DHT22;40800;52.704;6.398;2022-11-15T17:45:58;12.20;99.90
54898;DHT22;40800;52.704;6.398;2022-11-15T17:48:25;12.20;99.90
54898;DHT22;40800;52.704;6.398;2022-11-15T17:50:58;12.20;99.90
54898;DHT22;40800;52.704;6.398;2022-11-15T17:53:25;12.20;99.90